Mexican Cut, RMBL, Colorado Weather observations

Data are for 10 minute period ending at time listed.
 Day   Time   Solar   Ave.   Ave.  Ave.  Vector  Max.   Baro.   Total    
  of    of     Rad.   Air    Rel.  Wind   Wind   Wind  Press.  Precip.   
Year   Day            Temp.  Hum.  Speed  Dir.   Gust                    
2015   (MST)  Kw/m2    F      %     mph   deg.    mph    mb.     in.     
-------------------------------------------------------------------------
 209   17:30   0.13   59.8    24    3.0   259     6.2   681.9    0.00 
 209   17:40   0.05   59.4    24    2.2   276     7.2   681.9    0.00 
 209   17:50   0.25   59.3    26    2.9   308     6.4   681.8    0.00 
 209   18:00   0.22   58.0    28    1.7   312     5.0   681.8    0.00 
 209   18:10   0.13   56.7    30    1.7     4     6.7   681.8    0.00 
 209   18:20   0.03   55.7    31    1.5    79     4.4   682.0    0.00 
 209   18:30   0.02   55.2    33    2.4   340     6.0   682.0    0.00 
 209   18:40   0.02   54.2    33    1.4   318     3.3   682.0    0.00 
 209   18:50   0.02   54.3    33    1.1   333     6.7   682.0    0.00 
 209   19:00   0.01   53.9    34    0.4   227     1.5   682.0    0.00 
 209   19:10   0.01   53.4    34    0.5   242     1.8   682.0    0.00 
 209   19:20   0.00   52.9    35    0.6   236     2.9   682.2    0.00 
 209   19:30   0.00   51.9    38    0.6   202     1.1   682.1    0.00 
 209   19:40   0.00   50.5    40    0.8   231     1.6   682.1    0.00 
 209   19:50   0.00   50.1    40    1.1   224     1.6   682.1    0.00 
 209   20:00   0.00   50.0    41    0.9   230     1.7   682.1    0.00 
 209   20:10   0.00   50.0    40    0.8   192     2.3   682.1    0.00 
 209   20:20   0.00   49.4    42    0.8   262     1.7   682.3    0.00 
 209   20:30   0.00   50.0    41    0.6   207     1.8   682.4    0.00 
 209   20:40   0.00   48.8    42    1.5   210     2.3   682.6    0.00 
 209   20:50   0.00   48.3    46    2.7   208     3.4   682.6    0.00 
 209   21:00   0.00   48.4    46    2.2   208     3.0   682.7    0.00 
 209   21:10   0.00   47.9    46    1.0   219     2.0   682.7    0.00 
 209   21:20   0.00   47.3    48    1.3   193     1.8   682.8    0.00 
 209   21:30   0.00   47.6    47    1.1   226     1.9   682.9    0.00 
 209   21:40   0.00   47.8    47    2.2   208     2.9   682.8    0.00 
 209   21:50   0.00   47.8    47    2.3   203     3.3   682.8    0.00 
 209   22:00   0.00   47.6    48    2.1   215     3.1   682.7    0.00 
 209   22:10   0.00   47.4    48    1.2   211     2.6   682.8    0.00 
 209   22:20   0.00   46.9    48    2.1   200     3.2   682.8    0.00 
 209   22:30   0.00   47.4    48    3.2   200     4.6   682.7    0.00 
 209   22:40   0.00   47.9    46    2.7   200     4.2   682.7    0.00 
 209   22:50   0.00   47.4    48    1.0   192     2.6   682.7    0.00 
 209   23:00   0.00   47.7    41    2.4   183     5.8   682.7    0.00 
 209   23:10   0.00   49.2    34    3.0   208     4.9   682.7    0.00 
 209   23:20   0.00   48.5    36    2.1   191     4.5   682.7    0.00 
 209   23:30   0.00   47.1    38    1.3   182     2.6   682.6    0.00 
 209   23:40   0.00   46.5    45    1.6   207     3.1   682.6    0.00 
 209   23:50   0.00   47.1    42    1.2   210     4.1   682.5    0.00 
 210    0:00   0.00   47.2    40    1.1   197     2.6   682.5    0.00 
 210    0:10   0.00   46.6    39    1.0   197     2.4   682.5    0.00 
 210    0:20   0.00   46.2    40    1.3   212     2.5   682.4    0.00 
 210    0:30   0.00   45.7    41    1.5   202     2.0   682.4    0.00 
 210    0:40   0.00   45.8    41    1.4   222     2.1   682.4    0.00 
 210    0:50   0.00   46.4    40    0.6   237     2.1   682.4    0.00 
 210    1:00   0.00   46.4    41    0.4   189     1.9   682.4    0.00 
 210    1:10   0.00   45.9    43    1.5   196     3.4   682.5    0.00 
 210    1:20   0.00   45.7    42    1.1   218     2.0   682.4    0.00 
 210    1:30   0.00   45.7    43    1.2   226     1.8   682.4    0.00 
 210    1:40   0.00   45.6    43    1.4   218     2.0   682.4    0.00 
 210    1:50   0.00   45.7    46    1.3   220     2.0   682.4    0.00 
 210    2:00   0.00   46.0    46    1.5   224     2.1   682.5    0.00 
 210    2:10   0.00   45.7    47    1.4   218     1.8   682.5    0.00 
 210    2:20   0.00   45.5    48    1.0   225     1.8   682.5    0.00 
 210    2:30   0.00   45.0    49    1.5   201     2.7   682.6    0.00 
 210    2:40   0.00   44.4    52    2.1   202     3.4   682.6    0.00 
 210    2:50   0.00   45.1    51    1.6   217     3.2   682.6    0.00 
 210    3:00   0.00   44.8    51    1.3   218     2.0   682.6    0.00 
 210    3:10   0.00   44.2    51    1.3   209     1.7   682.6    0.00 
 210    3:20   0.00   44.4    50    0.9   228     1.8   682.5    0.00 
 210    3:30   0.00   44.6    48    2.0   194     3.2   682.5    0.00 
 210    3:40   0.00   45.0    48    2.1   174     4.0   682.5    0.00 
 210    3:50   0.00   45.1    48    1.8   207     3.4   682.4    0.00 
 210    4:00   0.00   44.6    49    1.4   197     2.8   682.4    0.00 
 210    4:10   0.00   45.0    45    1.2   213     3.8   682.5    0.00 
 210    4:20   0.00   46.0    43    1.2   206     2.0   682.5    0.00 
 210    4:30   0.00   45.3    44    1.1   210     3.1   682.6    0.00 
 210    4:40   0.00   45.6    44    1.5   214     4.2   682.6    0.00 
 210    4:50   0.00   46.2    44    2.2   202     6.4   682.6    0.00 
 210    5:00   0.00   46.6    41    2.0   204     5.0   682.6    0.00 
 210    5:10   0.00   46.1    44    0.6   238     1.8   682.8    0.00 
 210    5:20   0.00   45.3    43    0.6   162     2.3   682.8    0.00 
 210    5:30   0.01   45.3    43    1.0   178     2.3   682.9    0.00 
 210    5:40   0.01   44.9    45    0.9   197     3.0   683.0    0.00 
 210    5:50   0.04   45.1    46    0.5   224     3.9   683.1    0.00 
 210    6:00   0.12   46.3    45    0.1    12     0.8   683.1    0.00 
 210    6:10   0.15   50.0    42    1.1   109     3.1   683.2    0.00 
 210    6:20   0.19   51.1    40    2.9   102     5.5   683.1    0.00 
 210    6:30   0.22   51.9    39    3.2   109     6.9   683.3    0.00 
 210    6:40   0.26   52.3    39    3.3    88     6.6   683.4    0.00 
 210    6:50   0.30   52.5    40    2.9    88     7.2   683.5    0.00 
 210    7:00   0.33   53.5    39    2.2    86     5.5   683.6    0.00 
 210    7:10   0.37   54.1    38    2.7    94     7.2   683.7    0.00 
 210    7:20   0.41   54.9    35    3.8   121     7.5   684.0    0.00 
 210    7:30   0.45   55.7    32    4.5   138     7.9   684.1    0.00 
 210    7:40   0.49   56.8    31    4.3   167     8.4   684.2    0.00 
 210    7:50   0.52   56.9    33    3.5   137     6.9   684.2    0.00 
 210    8:00   0.56   57.1    34    3.7   125     8.3   684.3    0.00 
 210    8:10   0.60   57.6    33    2.6   150     7.9   684.2    0.00 
 210    8:20   0.63   57.6    33    3.6   104    11.4   684.3    0.00 
 210    8:30   0.66   56.8    32    4.1   118     8.4   684.3    0.00 
 210    8:40   0.69   57.5    32    2.8   104     6.6   684.3    0.00 
 210    8:50   0.72   57.7    31    1.7    33     4.6   684.4    0.00 
 210    9:00   0.75   58.2    31    1.8    45     6.1   684.3    0.00 
 210    9:10   0.78   58.7    30    2.0    62     5.8   684.4    0.00 
 210    9:20   0.82   58.7    29    2.3   356     7.1   684.4    0.00 
 210    9:30   0.85   57.3    29    3.8   324     8.0   684.5    0.00 
 210    9:40   0.87   57.7    29    4.3   346     8.9   684.6    0.00 
 210    9:50   0.89   57.8    26    2.6   283     7.0   684.6    0.00 
 210   10:00   0.91   57.2    28    5.1   303    10.5   684.6    0.00 
 210   10:10   0.94   57.5    28    5.6   336    13.5   684.5    0.00 
 210   10:20   0.96   57.3    27    6.3   327    12.6   684.6    0.00 
 210   10:30   0.98   57.4    27    5.1   329    11.0   684.7    0.00 
 210   10:40   0.99   57.5    27    5.9   320    10.9   684.7    0.00 
 210   10:50   1.01   57.6    26    6.6   328    13.5   684.7    0.00 
 210   11:00   1.02   58.4    28    4.1   337     9.8   684.8    0.00 
 210   11:10   1.03   58.7    27    4.0   319    10.9   684.7    0.00 
 210   11:20   1.04   58.4    27    4.8   322    12.9   684.8    0.00 
 210   11:30   1.05   58.3    27    4.1   325     9.3   684.9    0.00 
 210   11:40   1.06   58.3    28    4.4   318     8.9   684.9    0.00 
 210   11:50   1.06   58.5    27    3.8   325     7.2   684.8    0.00 
 210   12:00   1.06   59.1    26    3.3   314    11.6   684.7    0.00 
 210   12:10   1.07   59.2    28    4.0   332     8.9   684.7    0.00 
 210   12:20   1.07   59.4    27    4.4   322     8.0   684.7    0.00 
 210   12:30   1.07   59.5    26    3.7   353     8.6   684.7    0.00 
 210   12:40   1.06   60.1    27    3.2   353     9.1   684.7    0.00 
 210   12:50   1.06   60.0    27    4.0   351    11.6   684.6    0.00 
 210   13:00   1.06   59.8    28    5.7   333    11.5   684.6    0.00 
 210   13:10   1.04   59.7    28    4.2   320    10.8   684.6    0.00 
 210   13:20   0.99   60.0    28    4.0   319    10.3   684.6    0.00 
 210   13:30   1.01   60.6    28    3.7   342    10.6   684.6    0.00 
 210   13:40   1.01   60.5    27    4.7   334    14.8   684.5    0.00 
 210   13:50   1.00   60.6    27    4.1   338     9.2   684.6    0.00 
 210   14:00   0.98   60.9    27    3.8   333     9.3   684.5    0.00 
 210   14:10   0.96   60.2    27    4.6   323    10.6   684.6    0.00 
 210   14:20   0.94   60.0    28    6.2   341    11.1   684.5    0.00 
 210   14:30   0.93   60.1    27    4.5   342    10.7   684.4    0.00 
 210   14:40   0.93   61.3    27    2.7   323    10.2   684.4    0.00 
 210   14:50   0.89   61.4    26    3.8   338    10.0   684.3    0.00 
 210   15:00   0.87   61.2    26    3.9   345     9.1   684.2    0.00 
 210   15:10   0.83   61.0    26    4.5   270     8.7   684.2    0.00 
 210   15:20   0.78   62.3    27    2.5   259     8.7   684.1    0.00 
 210   15:30   0.67   63.1    26    3.0   258     9.3   684.1    0.00 
 210   15:40   0.55   60.5    29    2.4   274     8.5   684.2    0.00 
 210   15:50   0.44   61.8    27    2.3   258     6.3   684.2    0.00 
 210   16:00   0.11   60.4    28    2.1   242     5.6   684.1    0.00 
 210   16:10   0.53   60.1    29    1.2   238     3.4   684.1    0.00 
 210   16:20   0.41   61.9    28    1.9   198     8.3   684.1    0.00 
 210   16:30   0.18   60.4    28    3.5   255     7.8   684.1    0.00 
 210   16:40   0.11   58.6    30    3.7   274     7.7   684.1    0.00 
 210   16:50   0.09   58.4    31    2.5   248     5.1   684.1    0.00 
 210   17:00   0.09   58.2    32    1.3   232     5.6   684.0    0.00 
 210   17:10   0.25   58.2    34    1.4   220     5.4   683.9    0.00 
 210   17:20   0.44   60.9    30    1.6   307     6.5   684.0    0.00 

Return to Mexican Cut, RMBL, Colorado graphs page.


Western Regional Climate Center,wrcc@dri.edu